sensor_id;sensor_type;location;lat;lon;timestamp;P1;durP1;ratioP1;P2;durP2;ratioP2
62925;SDS011;55732;52.248;-0.844;2023-05-14T00:00:38;17.30;;;11.80;;
62925;SDS011;55732;52.248;-0.844;2023-05-14T00:03:03;15.00;;;13.30;;
62925;SDS011;55732;52.248;-0.844;2023-05-14T00:05:29;16.10;;;11.60;;
62925;SDS011;55732;52.248;-0.844;2023-05-14T00:07:54;15.60;;;12.60;;
62925;SDS011;55732;52.248;-0.844;2023-05-14T00:10:20;13.60;;;11.50;;
62925;SDS011;55732;52.248;-0.844;2023-05-14T00:12:46;18.60;;;12.70;;
62925;SDS011;55732;52.248;-0.844;2023-05-14T00:15:12;15.30;;;12.60;;
62925;SDS011;55732;52.248;-0.844;2023-05-14T00:17:37;14.80;;;11.70;;
62925;SDS011;55732;52.248;-0.844;2023-05-14T00:20:03;15.80;;;13.30;;
62925;SDS011;55732;52.248;-0.844;2023-05-14T00:22:34;14.50;;;11.90;;
62925;SDS011;55732;52.248;-0.844;2023-05-14T00:25:01;13.70;;;11.40;;
62925;SDS011;55732;52.248;-0.844;2023-05-14T00:27:26;17.20;;;11.70;;
62925;SDS011;55732;52.248;-0.844;2023-05-14T00:29:52;16.20;;;12.10;;
62925;SDS011;55732;52.248;-0.844;2023-05-14T00:32:17;14.50;;;11.50;;
62925;SDS011;55732;52.248;-0.844;2023-05-14T00:34:43;15.50;;;12.60;;
62925;SDS011;55732;52.248;-0.844;2023-05-14T00:37:08;15.70;;;12.50;;
62925;SDS011;55732;52.248;-0.844;2023-05-14T00:39:33;16.60;;;12.30;;
62925;SDS011;55732;52.248;-0.844;2023-05-14T00:41:59;16.00;;;12.60;;
62925;SDS011;55732;52.248;-0.844;2023-05-14T00:44:24;14.70;;;11.30;;
62925;SDS011;55732;52.248;-0.844;2023-05-14T00:46:50;14.90;;;11.40;;
62925;SDS011;55732;52.248;-0.844;2023-05-14T00:49:16;16.70;;;12.40;;
62925;SDS011;55732;52.248;-0.844;2023-05-14T00:51:42;16.00;;;12.70;;
62925;SDS011;55732;52.248;-0.844;2023-05-14T00:54:11;17.90;;;13.20;;
62925;SDS011;55732;52.248;-0.844;2023-05-14T00:56:41;27.40;;;14.40;;
62925;SDS011;55732;52.248;-0.844;2023-05-14T00:59:09;32.10;;;13.10;;
62925;SDS011;55732;52.248;-0.844;2023-05-14T01:01:34;17.50;;;13.70;;
62925;SDS011;55732;52.248;-0.844;2023-05-14T01:03:59;17.20;;;12.80;;
62925;SDS011;55732;52.248;-0.844;2023-05-14T01:06:42;16.50;;;12.60;;
62925;SDS011;55732;52.248;-0.844;2023-05-14T01:09:36;16.40;;;13.70;;
62925;SDS011;55732;52.248;-0.844;2023-05-14T01:17:18;17.30;;;12.70;;
62925;SDS011;55732;52.248;-0.844;2023-05-14T01:19:47;16.30;;;12.70;;
62925;SDS011;55732;52.248;-0.844;2023-05-14T01:22:13;19.10;;;13.00;;
62925;SDS011;55732;52.248;-0.844;2023-05-14T01:24:39;19.50;;;13.00;;
62925;SDS011;55732;52.248;-0.844;2023-05-14T01:29:57;18.10;;;13.20;;
62925;SDS011;55732;52.248;-0.844;2023-05-14T01:32:29;20.50;;;14.30;;
62925;SDS011;55732;52.248;-0.844;2023-05-14T01:34:56;17.20;;;14.50;;
62925;SDS011;55732;52.248;-0.844;2023-05-14T01:37:24;19.40;;;14.80;;
62925;SDS011;55732;52.248;-0.844;2023-05-14T01:42:18;18.30;;;13.10;;
62925;SDS011;55732;52.248;-0.844;2023-05-14T01:44:43;16.40;;;12.30;;
62925;SDS011;55732;52.248;-0.844;2023-05-14T01:47:09;20.30;;;13.70;;
62925;SDS011;55732;52.248;-0.844;2023-05-14T01:49:34;18.90;;;14.20;;
62925;SDS011;55732;52.248;-0.844;2023-05-14T01:52:01;18.10;;;13.20;;
62925;SDS011;55732;52.248;-0.844;2023-05-14T01:54:26;17.10;;;13.20;;
62925;SDS011;55732;52.248;-0.844;2023-05-14T01:56:52;19.30;;;13.70;;
62925;SDS011;55732;52.248;-0.844;2023-05-14T01:59:18;18.50;;;14.00;;
62925;SDS011;55732;52.248;-0.844;2023-05-14T02:01:43;19.70;;;14.20;;
62925;SDS011;55732;52.248;-0.844;2023-05-14T02:04:08;17.40;;;13.60;;
62925;SDS011;55732;52.248;-0.844;2023-05-14T02:06:34;17.20;;;14.50;;
62925;SDS011;55732;52.248;-0.844;2023-05-14T02:08:59;17.20;;;13.80;;
62925;SDS011;55732;52.248;-0.844;2023-05-14T02:11:24;16.20;;;12.80;;
62925;SDS011;55732;52.248;-0.844;2023-05-14T02:13:50;17.60;;;13.70;;
62925;SDS011;55732;52.248;-0.844;2023-05-14T02:16:15;13.90;;;12.00;;
62925;SDS011;55732;52.248;-0.844;2023-05-14T02:18:41;18.70;;;14.20;;
62925;SDS011;55732;52.248;-0.844;2023-05-14T02:21:06;17.20;;;13.90;;
62925;SDS011;55732;52.248;-0.844;2023-05-14T02:23:31;17.70;;;13.10;;
62925;SDS011;55732;52.248;-0.844;2023-05-14T02:25:57;20.10;;;13.90;;
62925;SDS011;55732;52.248;-0.844;2023-05-14T02:28:22;16.90;;;13.20;;
62925;SDS011;55732;52.248;-0.844;2023-05-14T02:30:47;15.70;;;13.40;;
62925;SDS011;55732;52.248;-0.844;2023-05-14T02:33:13;16.50;;;12.80;;
62925;SDS011;55732;52.248;-0.844;2023-05-14T02:35:38;21.80;;;13.40;;
62925;SDS011;55732;52.248;-0.844;2023-05-14T02:38:03;19.10;;;14.60;;
62925;SDS011;55732;52.248;-0.844;2023-05-14T02:40:29;21.40;;;14.60;;
62925;SDS011;55732;52.248;-0.844;2023-05-14T02:42:55;19.00;;;15.00;;
62925;SDS011;55732;52.248;-0.844;2023-05-14T02:45:20;15.80;;;12.60;;
62925;SDS011;55732;52.248;-0.844;2023-05-14T02:47:46;18.50;;;14.00;;
62925;SDS011;55732;52.248;-0.844;2023-05-14T02:50:11;18.70;;;15.50;;
62925;SDS011;55732;52.248;-0.844;2023-05-14T02:52:37;17.20;;;13.60;;
62925;SDS011;55732;52.248;-0.844;2023-05-14T02:55:02;16.50;;;14.20;;
62925;SDS011;55732;52.248;-0.844;2023-05-14T02:57:28;17.10;;;14.10;;
62925;SDS011;55732;52.248;-0.844;2023-05-14T02:59:53;19.60;;;14.20;;
62925;SDS011;55732;52.248;-0.844;2023-05-14T03:02:19;17.80;;;14.10;;
62925;SDS011;55732;52.248;-0.844;2023-05-14T03:04:44;21.00;;;14.70;;
62925;SDS011;55732;52.248;-0.844;2023-05-14T03:07:10;18.40;;;14.20;;
62925;SDS011;55732;52.248;-0.844;2023-05-14T03:09:36;21.50;;;13.70;;
62925;SDS011;55732;52.248;-0.844;2023-05-14T03:12:01;18.10;;;14.70;;
62925;SDS011;55732;52.248;-0.844;2023-05-14T03:14:26;17.40;;;14.80;;
62925;SDS011;55732;52.248;-0.844;2023-05-14T03:16:52;19.40;;;14.00;;
62925;SDS011;55732;52.248;-0.844;2023-05-14T03:19:17;18.30;;;14.20;;
62925;SDS011;55732;52.248;-0.844;2023-05-14T03:21:42;18.60;;;14.70;;
62925;SDS011;55732;52.248;-0.844;2023-05-14T03:24:08;19.80;;;13.90;;
62925;SDS011;55732;52.248;-0.844;2023-05-14T03:26:33;16.60;;;13.30;;
62925;SDS011;55732;52.248;-0.844;2023-05-14T03:28:58;19.90;;;13.40;;
62925;SDS011;55732;52.248;-0.844;2023-05-14T03:31:24;19.60;;;14.60;;
62925;SDS011;55732;52.248;-0.844;2023-05-14T03:33:50;23.20;;;14.80;;
62925;SDS011;55732;52.248;-0.844;2023-05-14T03:36:16;16.80;;;12.80;;
62925;SDS011;55732;52.248;-0.844;2023-05-14T03:38:41;19.30;;;12.50;;
62925;SDS011;55732;52.248;-0.844;2023-05-14T03:41:07;15.50;;;12.30;;
62925;SDS011;55732;52.248;-0.844;2023-05-14T03:43:32;15.60;;;12.50;;
62925;SDS011;55732;52.248;-0.844;2023-05-14T03:45:58;16.90;;;12.90;;
62925;SDS011;55732;52.248;-0.844;2023-05-14T03:48:24;16.30;;;13.40;;
62925;SDS011;55732;52.248;-0.844;2023-05-14T03:50:49;18.20;;;13.60;;
62925;SDS011;55732;52.248;-0.844;2023-05-14T03:53:15;20.80;;;13.20;;
62925;SDS011;55732;52.248;-0.844;2023-05-14T03:55:41;19.00;;;14.40;;
62925;SDS011;55732;52.248;-0.844;2023-05-14T03:58:06;16.70;;;12.20;;
62925;SDS011;55732;52.248;-0.844;2023-05-14T04:00:37;15.50;;;13.10;;
62925;SDS011;55732;52.248;-0.844;2023-05-14T04:03:06;16.80;;;13.00;;
62925;SDS011;55732;52.248;-0.844;2023-05-14T04:05:32;20.00;;;14.50;;
62925;SDS011;55732;52.248;-0.844;2023-05-14T04:07:58;18.80;;;13.80;;
62925;SDS011;55732;52.248;-0.844;2023-05-14T04:10:24;17.10;;;13.20;;
62925;SDS011;55732;52.248;-0.844;2023-05-14T04:12:49;19.40;;;13.10;;
62925;SDS011;55732;52.248;-0.844;2023-05-14T04:15:14;17.60;;;14.00;;
62925;SDS011;55732;52.248;-0.844;2023-05-14T04:17:40;18.30;;;13.80;;
62925;SDS011;55732;52.248;-0.844;2023-05-14T04:20:05;20.60;;;14.60;;
62925;SDS011;55732;52.248;-0.844;2023-05-14T04:22:32;22.10;;;14.00;;
62925;SDS011;55732;52.248;-0.844;2023-05-14T04:24:57;17.50;;;13.90;;
62925;SDS011;55732;52.248;-0.844;2023-05-14T04:27:22;16.70;;;12.40;;
62925;SDS011;55732;52.248;-0.844;2023-05-14T04:29:48;16.60;;;12.80;;
62925;SDS011;55732;52.248;-0.844;2023-05-14T04:32:14;16.90;;;13.20;;
62925;SDS011;55732;52.248;-0.844;2023-05-14T04:34:39;15.90;;;12.60;;
62925;SDS011;55732;52.248;-0.844;2023-05-14T04:37:05;18.50;;;13.50;;
62925;SDS011;55732;52.248;-0.844;2023-05-14T04:39:30;15.60;;;12.90;;
62925;SDS011;55732;52.248;-0.844;2023-05-14T04:41:56;15.70;;;13.50;;
62925;SDS011;55732;52.248;-0.844;2023-05-14T04:44:21;18.40;;;13.00;;
62925;SDS011;55732;52.248;-0.844;2023-05-14T04:46:46;16.30;;;13.50;;
62925;SDS011;55732;52.248;-0.844;2023-05-14T04:49:12;15.80;;;13.10;;
62925;SDS011;55732;52.248;-0.844;2023-05-14T04:51:37;16.70;;;12.60;;
62925;SDS011;55732;52.248;-0.844;2023-05-14T04:54:02;17.60;;;13.30;;
62925;SDS011;55732;52.248;-0.844;2023-05-14T04:56:28;18.50;;;14.10;;
62925;SDS011;55732;52.248;-0.844;2023-05-14T04:58:53;18.30;;;13.20;;
62925;SDS011;55732;52.248;-0.844;2023-05-14T05:01:19;18.60;;;13.00;;
62925;SDS011;55732;52.248;-0.844;2023-05-14T05:03:45;16.30;;;12.70;;
62925;SDS011;55732;52.248;-0.844;2023-05-14T05:06:10;17.50;;;12.20;;
62925;SDS011;55732;52.248;-0.844;2023-05-14T05:08:35;15.00;;;11.30;;
62925;SDS011;55732;52.248;-0.844;2023-05-14T05:11:01;16.30;;;12.90;;
62925;SDS011;55732;52.248;-0.844;2023-05-14T05:13:27;14.90;;;12.60;;
62925;SDS011;55732;52.248;-0.844;2023-05-14T05:15:52;15.50;;;12.60;;
62925;SDS011;55732;52.248;-0.844;2023-05-14T05:18:18;19.00;;;15.00;;
62925;SDS011;55732;52.248;-0.844;2023-05-14T05:20:43;17.90;;;14.40;;
62925;SDS011;55732;52.248;-0.844;2023-05-14T05:23:08;16.00;;;12.70;;
62925;SDS011;55732;52.248;-0.844;2023-05-14T05:25:34;18.50;;;13.10;;
62925;SDS011;55732;52.248;-0.844;2023-05-14T05:28:00;17.30;;;13.30;;
62925;SDS011;55732;52.248;-0.844;2023-05-14T05:30:25;16.60;;;13.10;;
62925;SDS011;55732;52.248;-0.844;2023-05-14T05:32:50;15.90;;;13.00;;
62925;SDS011;55732;52.248;-0.844;2023-05-14T05:35:16;19.00;;;13.90;;
62925;SDS011;55732;52.248;-0.844;2023-05-14T05:37:41;18.80;;;14.20;;
62925;SDS011;55732;52.248;-0.844;2023-05-14T05:40:07;17.90;;;13.10;;
62925;SDS011;55732;52.248;-0.844;2023-05-14T05:42:34;18.30;;;14.30;;
62925;SDS011;55732;52.248;-0.844;2023-05-14T05:44:59;16.50;;;13.10;;
62925;SDS011;55732;52.248;-0.844;2023-05-14T05:47:25;16.20;;;13.00;;
62925;SDS011;55732;52.248;-0.844;2023-05-14T05:49:50;18.70;;;13.50;;
62925;SDS011;55732;52.248;-0.844;2023-05-14T05:52:15;16.30;;;13.30;;
62925;SDS011;55732;52.248;-0.844;2023-05-14T05:54:41;16.90;;;13.50;;
62925;SDS011;55732;52.248;-0.844;2023-05-14T05:57:06;16.00;;;12.70;;
62925;SDS011;55732;52.248;-0.844;2023-05-14T05:59:32;18.40;;;13.30;;
62925;SDS011;55732;52.248;-0.844;2023-05-14T06:01:57;21.90;;;13.20;;
62925;SDS011;55732;52.248;-0.844;2023-05-14T06:04:23;15.90;;;13.40;;
62925;SDS011;55732;52.248;-0.844;2023-05-14T06:06:48;16.90;;;13.00;;
62925;SDS011;55732;52.248;-0.844;2023-05-14T06:09:14;17.80;;;13.60;;
62925;SDS011;55732;52.248;-0.844;2023-05-14T06:11:40;15.80;;;12.00;;
62925;SDS011;55732;52.248;-0.844;2023-05-14T06:14:05;17.50;;;13.90;;
62925;SDS011;55732;52.248;-0.844;2023-05-14T06:16:31;16.80;;;13.30;;
62925;SDS011;55732;52.248;-0.844;2023-05-14T06:18:57;17.00;;;12.70;;
62925;SDS011;55732;52.248;-0.844;2023-05-14T06:21:22;18.00;;;13.70;;
62925;SDS011;55732;52.248;-0.844;2023-05-14T06:23:47;18.20;;;14.00;;
62925;SDS011;55732;52.248;-0.844;2023-05-14T06:26:13;18.80;;;13.00;;
62925;SDS011;55732;52.248;-0.844;2023-05-14T06:28:38;17.70;;;14.90;;
62925;SDS011;55732;52.248;-0.844;2023-05-14T06:31:04;19.90;;;13.80;;
62925;SDS011;55732;52.248;-0.844;2023-05-14T06:33:29;19.70;;;14.00;;
62925;SDS011;55732;52.248;-0.844;2023-05-14T06:35:58;18.70;;;12.90;;
62925;SDS011;55732;52.248;-0.844;2023-05-14T06:38:25;16.50;;;13.20;;
62925;SDS011;55732;52.248;-0.844;2023-05-14T06:40:50;20.10;;;14.20;;
62925;SDS011;55732;52.248;-0.844;2023-05-14T06:43:19;16.50;;;13.20;;
62925;SDS011;55732;52.248;-0.844;2023-05-14T06:45:48;18.60;;;14.30;;
62925;SDS011;55732;52.248;-0.844;2023-05-14T06:48:15;23.60;;;14.20;;
62925;SDS011;55732;52.248;-0.844;2023-05-14T06:50:45;18.00;;;13.60;;
62925;SDS011;55732;52.248;-0.844;2023-05-14T06:53:12;18.70;;;13.90;;
62925;SDS011;55732;52.248;-0.844;2023-05-14T06:55:37;16.10;;;13.20;;
62925;SDS011;55732;52.248;-0.844;2023-05-14T06:58:05;17.70;;;13.60;;
62925;SDS011;55732;52.248;-0.844;2023-05-14T07:00:31;22.00;;;13.80;;
62925;SDS011;55732;52.248;-0.844;2023-05-14T07:02:56;16.40;;;13.70;;
62925;SDS011;55732;52.248;-0.844;2023-05-14T07:05:23;21.10;;;15.60;;
62925;SDS011;55732;52.248;-0.844;2023-05-14T07:07:49;19.50;;;15.00;;
62925;SDS011;55732;52.248;-0.844;2023-05-14T07:10:15;22.30;;;14.80;;
62925;SDS011;55732;52.248;-0.844;2023-05-14T07:12:40;17.50;;;14.00;;
62925;SDS011;55732;52.248;-0.844;2023-05-14T07:15:06;17.20;;;13.00;;
62925;SDS011;55732;52.248;-0.844;2023-05-14T07:17:32;21.20;;;14.70;;
62925;SDS011;55732;52.248;-0.844;2023-05-14T07:19:57;17.90;;;13.10;;
62925;SDS011;55732;52.248;-0.844;2023-05-14T07:22:23;20.60;;;14.00;;
62925;SDS011;55732;52.248;-0.844;2023-05-14T07:24:48;17.90;;;13.40;;
62925;SDS011;55732;52.248;-0.844;2023-05-14T07:27:14;18.10;;;14.40;;
62925;SDS011;55732;52.248;-0.844;2023-05-14T07:29:41;16.70;;;14.20;;
62925;SDS011;55732;52.248;-0.844;2023-05-14T07:32:06;18.00;;;13.50;;
62925;SDS011;55732;52.248;-0.844;2023-05-14T07:34:32;17.20;;;13.80;;
62925;SDS011;55732;52.248;-0.844;2023-05-14T07:36:57;18.80;;;14.30;;
62925;SDS011;55732;52.248;-0.844;2023-05-14T07:39:23;17.20;;;14.50;;
62925;SDS011;55732;52.248;-0.844;2023-05-14T07:41:48;19.20;;;15.40;;
62925;SDS011;55732;52.248;-0.844;2023-05-14T07:44:14;19.40;;;14.80;;
62925;SDS011;55732;52.248;-0.844;2023-05-14T07:46:39;21.30;;;15.20;;
62925;SDS011;55732;52.248;-0.844;2023-05-14T07:49:05;19.80;;;15.70;;
62925;SDS011;55732;52.248;-0.844;2023-05-14T07:51:30;16.00;;;14.30;;
62925;SDS011;55732;52.248;-0.844;2023-05-14T07:53:57;19.80;;;15.60;;
62925;SDS011;55732;52.248;-0.844;2023-05-14T07:56:23;18.70;;;14.80;;
62925;SDS011;55732;52.248;-0.844;2023-05-14T07:58:49;18.10;;;15.00;;
62925;SDS011;55732;52.248;-0.844;2023-05-14T08:01:15;18.10;;;15.40;;
62925;SDS011;55732;52.248;-0.844;2023-05-14T08:03:41;17.40;;;15.60;;
62925;SDS011;55732;52.248;-0.844;2023-05-14T08:06:07;19.60;;;15.40;;
62925;SDS011;55732;52.248;-0.844;2023-05-14T08:08:32;20.00;;;15.80;;
62925;SDS011;55732;52.248;-0.844;2023-05-14T08:10:57;17.80;;;15.40;;
62925;SDS011;55732;52.248;-0.844;2023-05-14T08:13:23;20.80;;;15.90;;
62925;SDS011;55732;52.248;-0.844;2023-05-14T08:15:48;20.60;;;15.30;;
62925;SDS011;55732;52.248;-0.844;2023-05-14T08:18:14;21.40;;;16.20;;
62925;SDS011;55732;52.248;-0.844;2023-05-14T08:20:39;22.90;;;16.60;;
62925;SDS011;55732;52.248;-0.844;2023-05-14T08:23:04;20.70;;;15.20;;
62925;SDS011;55732;52.248;-0.844;2023-05-14T08:25:31;18.30;;;15.70;;
62925;SDS011;55732;52.248;-0.844;2023-05-14T08:27:57;22.70;;;16.30;;
62925;SDS011;55732;52.248;-0.844;2023-05-14T08:30:23;18.80;;;16.00;;
62925;SDS011;55732;52.248;-0.844;2023-05-14T08:32:49;17.10;;;13.80;;
62925;SDS011;55732;52.248;-0.844;2023-05-14T08:35:15;21.90;;;16.10;;
62925;SDS011;55732;52.248;-0.844;2023-05-14T08:37:42;17.40;;;13.60;;
62925;SDS011;55732;52.248;-0.844;2023-05-14T08:40:07;17.20;;;14.30;;
62925;SDS011;55732;52.248;-0.844;2023-05-14T08:42:33;18.40;;;14.10;;
62925;SDS011;55732;52.248;-0.844;2023-05-14T08:45:00;15.40;;;13.60;;
62925;SDS011;55732;52.248;-0.844;2023-05-14T08:47:28;16.80;;;14.40;;
62925;SDS011;55732;52.248;-0.844;2023-05-14T08:50:00;15.50;;;13.10;;
62925;SDS011;55732;52.248;-0.844;2023-05-14T08:52:30;16.00;;;13.80;;
62925;SDS011;55732;52.248;-0.844;2023-05-14T08:54:57;17.50;;;13.60;;
62925;SDS011;55732;52.248;-0.844;2023-05-14T08:57:25;16.80;;;14.60;;
62925;SDS011;55732;52.248;-0.844;2023-05-14T08:59:52;15.70;;;14.00;;
62925;SDS011;55732;52.248;-0.844;2023-05-14T09:02:19;17.80;;;13.20;;
62925;SDS011;55732;52.248;-0.844;2023-05-14T09:04:48;16.20;;;13.00;;
62925;SDS011;55732;52.248;-0.844;2023-05-14T09:07:19;15.70;;;12.40;;
62925;SDS011;55732;52.248;-0.844;2023-05-14T09:09:44;15.40;;;12.20;;
62925;SDS011;55732;52.248;-0.844;2023-05-14T09:12:11;14.30;;;11.90;;
62925;SDS011;55732;52.248;-0.844;2023-05-14T09:14:37;11.30;;;10.20;;
62925;SDS011;55732;52.248;-0.844;2023-05-14T09:17:02;12.40;;;11.10;;
62925;SDS011;55732;52.248;-0.844;2023-05-14T09:19:28;11.40;;;10.20;;
62925;SDS011;55732;52.248;-0.844;2023-05-14T09:21:55;11.10;;;10.00;;
62925;SDS011;55732;52.248;-0.844;2023-05-14T09:24:23;10.60;;;9.30;;
62925;SDS011;55732;52.248;-0.844;2023-05-14T09:27:00;11.10;;;9.50;;
62925;SDS011;55732;52.248;-0.844;2023-05-14T09:29:28;11.70;;;9.50;;
62925;SDS011;55732;52.248;-0.844;2023-05-14T09:31:54;9.60;;;8.60;;
62925;SDS011;55732;52.248;-0.844;2023-05-14T09:34:24;9.00;;;8.10;;
62925;SDS011;55732;52.248;-0.844;2023-05-14T09:36:57;8.90;;;8.00;;
62925;SDS011;55732;52.248;-0.844;2023-05-14T09:39:30;8.80;;;7.90;;
62925;SDS011;55732;52.248;-0.844;2023-05-14T09:41:56;8.50;;;7.50;;
62925;SDS011;55732;52.248;-0.844;2023-05-14T09:44:22;9.70;;;8.60;;
62925;SDS011;55732;52.248;-0.844;2023-05-14T09:49:14;9.40;;;8.10;;
62925;SDS011;55732;52.248;-0.844;2023-05-14T09:51:40;8.40;;;7.70;;
62925;SDS011;55732;52.248;-0.844;2023-05-14T09:54:06;9.70;;;8.80;;
62925;SDS011;55732;52.248;-0.844;2023-05-14T09:56:32;9.30;;;8.40;;
62925;SDS011;55732;52.248;-0.844;2023-05-14T09:58:58;9.30;;;7.30;;
62925;SDS011;55732;52.248;-0.844;2023-05-14T10:01:24;10.20;;;8.90;;
62925;SDS011;55732;52.248;-0.844;2023-05-14T10:03:50;8.80;;;7.90;;
62925;SDS011;55732;52.248;-0.844;2023-05-14T10:06:18;9.00;;;8.10;;
62925;SDS011;55732;52.248;-0.844;2023-05-14T10:08:56;9.10;;;8.10;;
62925;SDS011;55732;52.248;-0.844;2023-05-14T10:11:26;11.80;;;8.60;;
62925;SDS011;55732;52.248;-0.844;2023-05-14T10:16:32;9.40;;;8.50;;
62925;SDS011;55732;52.248;-0.844;2023-05-14T10:19:09;9.30;;;8.30;;
62925;SDS011;55732;52.248;-0.844;2023-05-14T10:21:36;10.50;;;8.80;;
62925;SDS011;55732;52.248;-0.844;2023-05-14T10:24:05;10.20;;;8.40;;
62925;SDS011;55732;52.248;-0.844;2023-05-14T10:26:33;11.10;;;9.50;;
62925;SDS011;55732;52.248;-0.844;2023-05-14T10:29:03;10.30;;;9.30;;
62925;SDS011;55732;52.248;-0.844;2023-05-14T10:31:46;11.00;;;9.90;;
62925;SDS011;55732;52.248;-0.844;2023-05-14T10:37:02;12.50;;;9.60;;
62925;SDS011;55732;52.248;-0.844;2023-05-14T10:42:12;9.50;;;8.60;;
62925;SDS011;55732;52.248;-0.844;2023-05-14T10:44:46;10.50;;;9.50;;
62925;SDS011;55732;52.248;-0.844;2023-05-14T10:47:15;12.40;;;11.10;;
62925;SDS011;55732;52.248;-0.844;2023-05-14T10:52:08;13.20;;;10.30;;
62925;SDS011;55732;52.248;-0.844;2023-05-14T10:54:35;10.70;;;9.70;;
62925;SDS011;55732;52.248;-0.844;2023-05-14T10:59:27;12.90;;;9.60;;
62925;SDS011;55732;52.248;-0.844;2023-05-14T11:01:52;10.40;;;9.30;;
62925;SDS011;55732;52.248;-0.844;2023-05-14T11:04:18;14.20;;;10.60;;
62925;SDS011;55732;52.248;-0.844;2023-05-14T11:06:47;10.90;;;9.80;;
62925;SDS011;55732;52.248;-0.844;2023-05-14T11:09:13;11.00;;;9.90;;
62925;SDS011;55732;52.248;-0.844;2023-05-14T11:11:41;11.50;;;10.30;;
62925;SDS011;55732;52.248;-0.844;2023-05-14T11:14:08;10.70;;;9.60;;
62925;SDS011;55732;52.248;-0.844;2023-05-14T11:16:33;11.70;;;10.50;;
62925;SDS011;55732;52.248;-0.844;2023-05-14T11:18:59;16.10;;;10.00;;
62925;SDS011;55732;52.248;-0.844;2023-05-14T11:21:27;12.70;;;11.00;;
62925;SDS011;55732;52.248;-0.844;2023-05-14T11:23:56;12.70;;;11.30;;
62925;SDS011;55732;52.248;-0.844;2023-05-14T11:26:22;12.30;;;11.10;;
62925;SDS011;55732;52.248;-0.844;2023-05-14T11:28:48;13.10;;;11.30;;
62925;SDS011;55732;52.248;-0.844;2023-05-14T11:31:13;10.50;;;9.50;;
62925;SDS011;55732;52.248;-0.844;2023-05-14T11:33:39;12.70;;;11.40;;
62925;SDS011;55732;52.248;-0.844;2023-05-14T11:36:05;12.40;;;10.30;;
62925;SDS011;55732;52.248;-0.844;2023-05-14T11:38:30;11.60;;;10.30;;
62925;SDS011;55732;52.248;-0.844;2023-05-14T11:40:56;12.00;;;10.60;;
62925;SDS011;55732;52.248;-0.844;2023-05-14T11:43:24;10.90;;;8.60;;
62925;SDS011;55732;52.248;-0.844;2023-05-14T11:45:53;14.80;;;11.00;;
62925;SDS011;55732;52.248;-0.844;2023-05-14T11:48:19;12.90;;;10.20;;
62925;SDS011;55732;52.248;-0.844;2023-05-14T11:50:46;12.50;;;11.00;;
62925;SDS011;55732;52.248;-0.844;2023-05-14T11:53:23;12.50;;;11.20;;
62925;SDS011;55732;52.248;-0.844;2023-05-14T11:55:50;13.60;;;11.10;;
62925;SDS011;55732;52.248;-0.844;2023-05-14T11:58:18;14.20;;;11.50;;
62925;SDS011;55732;52.248;-0.844;2023-05-14T12:00:44;12.00;;;10.60;;
62925;SDS011;55732;52.248;-0.844;2023-05-14T12:03:11;14.10;;;11.90;;
62925;SDS011;55732;52.248;-0.844;2023-05-14T12:05:40;11.10;;;9.00;;
62925;SDS011;55732;52.248;-0.844;2023-05-14T12:08:19;13.20;;;10.70;;
62925;SDS011;55732;52.248;-0.844;2023-05-14T12:10:46;13.60;;;10.50;;
62925;SDS011;55732;52.248;-0.844;2023-05-14T12:13:13;10.90;;;8.60;;
62925;SDS011;55732;52.248;-0.844;2023-05-14T12:15:43;9.90;;;8.30;;
62925;SDS011;55732;52.248;-0.844;2023-05-14T12:18:12;11.50;;;9.20;;
62925;SDS011;55732;52.248;-0.844;2023-05-14T12:20:39;12.60;;;9.90;;
62925;SDS011;55732;52.248;-0.844;2023-05-14T12:23:10;10.00;;;8.50;;
62925;SDS011;55732;52.248;-0.844;2023-05-14T12:25:36;11.30;;;9.00;;
62925;SDS011;55732;52.248;-0.844;2023-05-14T12:28:06;10.70;;;8.90;;
62925;SDS011;55732;52.248;-0.844;2023-05-14T12:30:41;11.60;;;8.00;;
62925;SDS011;55732;52.248;-0.844;2023-05-14T12:33:06;8.20;;;7.30;;
62925;SDS011;55732;52.248;-0.844;2023-05-14T12:35:32;8.80;;;6.90;;
62925;SDS011;55732;52.248;-0.844;2023-05-14T12:37:57;8.70;;;7.60;;
62925;SDS011;55732;52.248;-0.844;2023-05-14T12:40:22;12.80;;;7.70;;
62925;SDS011;55732;52.248;-0.844;2023-05-14T12:42:49;8.20;;;7.40;;
62925;SDS011;55732;52.248;-0.844;2023-05-14T12:45:14;9.20;;;8.10;;
62925;SDS011;55732;52.248;-0.844;2023-05-14T12:47:40;8.50;;;7.60;;
62925;SDS011;55732;52.248;-0.844;2023-05-14T12:50:05;7.90;;;7.10;;
62925;SDS011;55732;52.248;-0.844;2023-05-14T12:52:31;7.90;;;7.10;;
62925;SDS011;55732;52.248;-0.844;2023-05-14T12:54:57;8.60;;;5.90;;
62925;SDS011;55732;52.248;-0.844;2023-05-14T12:57:22;7.00;;;6.00;;
62925;SDS011;55732;52.248;-0.844;2023-05-14T12:59:48;9.60;;;6.50;;
62925;SDS011;55732;52.248;-0.844;2023-05-14T13:02:13;7.70;;;6.20;;
62925;SDS011;55732;52.248;-0.844;2023-05-14T13:04:40;6.00;;;5.10;;
62925;SDS011;55732;52.248;-0.844;2023-05-14T13:07:05;5.60;;;4.00;;
62925;SDS011;55732;52.248;-0.844;2023-05-14T13:09:32;6.30;;;4.70;;
62925;SDS011;55732;52.248;-0.844;2023-05-14T13:11:58;8.70;;;4.10;;
62925;SDS011;55732;52.248;-0.844;2023-05-14T13:14:23;7.10;;;4.70;;
62925;SDS011;55732;52.248;-0.844;2023-05-14T13:16:49;5.30;;;4.50;;
62925;SDS011;55732;52.248;-0.844;2023-05-14T13:19:14;8.50;;;5.00;;
62925;SDS011;55732;52.248;-0.844;2023-05-14T13:21:39;4.80;;;4.20;;
62925;SDS011;55732;52.248;-0.844;2023-05-14T13:24:05;5.80;;;3.40;;
62925;SDS011;55732;52.248;-0.844;2023-05-14T13:26:30;4.30;;;3.80;;
62925;SDS011;55732;52.248;-0.844;2023-05-14T13:28:56;4.60;;;3.60;;
62925;SDS011;55732;52.248;-0.844;2023-05-14T13:31:21;4.30;;;3.70;;
62925;SDS011;55732;52.248;-0.844;2023-05-14T13:33:46;4.60;;;3.60;;
62925;SDS011;55732;52.248;-0.844;2023-05-14T13:36:12;4.40;;;3.40;;
62925;SDS011;55732;52.248;-0.844;2023-05-14T13:38:38;4.60;;;3.60;;
62925;SDS011;55732;52.248;-0.844;2023-05-14T13:41:04;3.90;;;3.40;;
62925;SDS011;55732;52.248;-0.844;2023-05-14T13:43:31;6.70;;;3.40;;
62925;SDS011;55732;52.248;-0.844;2023-05-14T13:45:57;7.30;;;3.30;;
62925;SDS011;55732;52.248;-0.844;2023-05-14T13:48:23;6.10;;;3.90;;
62925;SDS011;55732;52.248;-0.844;2023-05-14T13:50:49;4.10;;;3.70;;
62925;SDS011;55732;52.248;-0.844;2023-05-14T13:53:16;7.00;;;4.50;;
62925;SDS011;55732;52.248;-0.844;2023-05-14T13:55:43;11.80;;;4.90;;
62925;SDS011;55732;52.248;-0.844;2023-05-14T13:58:09;7.60;;;4.70;;
62925;SDS011;55732;52.248;-0.844;2023-05-14T14:00:34;7.50;;;5.30;;
62925;SDS011;55732;52.248;-0.844;2023-05-14T14:03:00;5.60;;;4.30;;
62925;SDS011;55732;52.248;-0.844;2023-05-14T14:05:25;5.50;;;4.40;;
62925;SDS011;55732;52.248;-0.844;2023-05-14T14:07:52;5.80;;;4.80;;
62925;SDS011;55732;52.248;-0.844;2023-05-14T14:10:18;7.60;;;4.70;;
62925;SDS011;55732;52.248;-0.844;2023-05-14T14:12:45;6.10;;;4.50;;
62925;SDS011;55732;52.248;-0.844;2023-05-14T14:15:10;5.10;;;4.50;;
62925;SDS011;55732;52.248;-0.844;2023-05-14T14:17:36;5.60;;;4.70;;
62925;SDS011;55732;52.248;-0.844;2023-05-14T14:20:03;6.60;;;4.60;;
62925;SDS011;55732;52.248;-0.844;2023-05-14T14:22:30;7.40;;;3.90;;
62925;SDS011;55732;52.248;-0.844;2023-05-14T14:24:55;7.00;;;4.10;;
62925;SDS011;55732;52.248;-0.844;2023-05-14T14:27:21;5.40;;;3.40;;
62925;SDS011;55732;52.248;-0.844;2023-05-14T14:29:46;4.60;;;3.60;;
62925;SDS011;55732;52.248;-0.844;2023-05-14T14:32:12;3.80;;;3.30;;
62925;SDS011;55732;52.248;-0.844;2023-05-14T14:34:37;3.60;;;2.80;;
62925;SDS011;55732;52.248;-0.844;2023-05-14T14:37:03;9.90;;;3.80;;